Time;durP1;ratioP1;P1;durP2;ratioP2;P2;SDS_P1;SDS_P2;PMS_P1;PMS_P2;Temp;Humidity;BMP_temperature;BMP_pressure;BME280_temperature;BME280_humidity;BME280_pressure;Samples;Min_cycle;Max_cycle;Signal;HPM_P1;HPM_P2
2021/10/18 00:02:02;;;;;;;7.47;4.75;;;6.40;99.90;;;;;;5050094;28;20197;-75
2021/10/18 00:04:29;;;;;;;6.85;4.50;;;6.40;99.90;;;;;;5050538;28;20172;-75
2021/10/18 00:06:55;;;;;;;8.40;4.93;;;6.40;99.90;;;;;;5032962;28;20224;-75
2021/10/18 00:09:20;;;;;;;7.80;5.20;;;6.30;99.90;;;;;;5050641;28;20173;-76
2021/10/18 00:11:46;;;;;;;9.85;4.43;;;6.30;99.90;;;;;;5051029;28;20197;-76
2021/10/18 00:14:12;;;;;;;6.55;4.50;;;6.30;99.90;;;;;;5051008;28;20671;-76
2021/10/18 00:16:39;;;;;;;9.57;5.45;;;6.20;99.90;;;;;;5050840;28;20166;-76
2021/10/18 00:19:06;;;;;;;13.98;5.68;;;6.20;99.90;;;;;;5032999;28;20197;-76
2021/10/18 00:21:32;;;;;;;8.63;4.97;;;6.20;99.90;;;;;;5032970;28;20614;-76
2021/10/18 00:23:58;;;;;;;6.15;4.72;;;6.20;99.90;;;;;;5032831;28;20184;-73
2021/10/18 00:26:24;;;;;;;9.75;4.75;;;6.20;99.90;;;;;;5032821;28;20201;-73
2021/10/18 00:28:50;;;;;;;7.25;4.93;;;6.10;99.90;;;;;;5032998;28;20172;-73
2021/10/18 00:31:16;;;;;;;5.53;4.40;;;6.10;99.90;;;;;;5050705;28;20162;-73
2021/10/18 00:33:43;;;;;;;10.73;4.35;;;6.20;99.90;;;;;;5032765;28;20268;-73
2021/10/18 00:36:09;;;;;;;14.32;5.18;;;6.20;99.90;;;;;;5032724;28;20173;-73
2021/10/18 00:38:34;;;;;;;6.57;4.35;;;6.10;99.90;;;;;;5032644;28;20169;-73
2021/10/18 00:41:00;;;;;;;8.80;4.95;;;5.90;99.90;;;;;;5049189;28;20681;-74
2021/10/18 00:43:26;;;;;;;7.72;4.28;;;5.90;99.90;;;;;;5043705;28;20262;-73
2021/10/18 00:45:52;;;;;;;5.13;4.07;;;5.90;99.90;;;;;;5070462;28;20149;-73
2021/10/18 00:48:18;;;;;;;7.85;4.60;;;5.90;99.90;;;;;;5070272;28;20216;-73
2021/10/18 00:50:44;;;;;;;7.00;3.95;;;5.90;99.90;;;;;;5032019;28;20201;-73
2021/10/18 00:53:10;;;;;;;6.20;4.22;;;6.00;99.90;;;;;;5050155;28;20221;-72
2021/10/18 00:55:37;;;;;;;8.43;4.53;;;5.90;99.90;;;;;;5050242;28;20169;-72
2021/10/18 00:58:03;;;;;;;8.50;4.03;;;5.90;99.90;;;;;;5032327;28;20173;-73
2021/10/18 01:00:29;;;;;;;5.78;3.72;;;6.00;99.90;;;;;;5032209;28;20235;-73
2021/10/18 01:02:55;;;;;;;8.90;4.72;;;6.00;99.90;;;;;;5032209;28;20197;-73
2021/10/18 01:05:23;;;;;;;7.03;4.57;;;6.00;99.90;;;;;;5032403;28;20185;-73
2021/10/18 01:07:49;;;;;;;13.45;4.82;;;5.90;99.90;;;;;;5032108;28;20703;-73
2021/10/18 01:10:16;;;;;;;10.18;5.28;;;5.80;99.90;;;;;;5032019;28;20162;-74
2021/10/18 01:12:42;;;;;;;11.02;4.65;;;5.80;99.90;;;;;;5049759;28;20197;-74
2021/10/18 01:15:08;;;;;;;6.78;4.15;;;5.80;99.90;;;;;;5031255;28;20260;-73
2021/10/18 01:17:35;;;;;;;10.20;4.57;;;5.80;99.90;;;;;;5031849;28;20173;-74
2021/10/18 01:20:00;;;;;;;5.78;4.10;;;5.80;99.90;;;;;;5049160;28;20189;-74
2021/10/18 01:22:28;;;;;;;6.03;4.38;;;5.80;99.90;;;;;;5049127;28;20673;-74
2021/10/18 01:24:54;;;;;;;6.90;4.15;;;5.80;99.90;;;;;;5030997;28;20192;-73
2021/10/18 01:27:20;;;;;;;10.23;4.90;;;5.80;99.90;;;;;;5049087;28;20158;-74
2021/10/18 01:29:45;;;;;;;6.90;4.45;;;5.80;99.90;;;;;;5031253;28;20619;-74
2021/10/18 01:32:11;;;;;;;10.07;4.45;;;5.80;99.90;;;;;;5048945;28;20185;-74
2021/10/18 01:34:37;;;;;;;8.48;4.43;;;5.80;99.90;;;;;;5031268;28;20227;-74
2021/10/18 01:37:05;;;;;;;9.63;3.78;;;5.80;99.90;;;;;;5049017;28;20157;-73
2021/10/18 01:39:32;;;;;;;5.65;3.78;;;5.70;99.90;;;;;;5048545;28;20185;-74
2021/10/18 01:41:58;;;;;;;5.85;3.85;;;5.70;99.90;;;;;;5048699;28;20197;-74
2021/10/18 01:44:24;;;;;;;4.90;3.75;;;5.70;99.90;;;;;;5048551;28;20192;-75
2021/10/18 01:46:50;;;;;;;8.85;3.85;;;5.60;99.90;;;;;;5030962;28;20169;-74
2021/10/18 01:49:16;;;;;;;7.18;3.60;;;5.60;99.90;;;;;;5031069;28;20177;-73
2021/10/18 01:51:42;;;;;;;8.73;3.80;;;5.60;99.90;;;;;;5048532;28;20162;-73
2021/10/18 01:54:08;;;;;;;5.53;4.03;;;5.60;99.90;;;;;;5048678;28;20232;-72
2021/10/18 01:56:35;;;;;;;7.20;4.78;;;5.50;99.90;;;;;;5030926;28;20236;-74
2021/10/18 01:59:03;;;;;;;6.95;4.47;;;5.40;99.90;;;;;;5048653;28;20165;-73
2021/10/18 02:01:29;;;;;;;4.47;3.60;;;5.50;99.90;;;;;;5030726;28;20272;-73
2021/10/18 02:03:54;;;;;;;7.05;4.75;;;5.40;99.90;;;;;;5030729;28;20191;-74
2021/10/18 02:06:20;;;;;;;7.82;5.15;;;5.60;99.90;;;;;;5048451;28;20165;-74
2021/10/18 02:08:46;;;;;;;9.90;4.35;;;5.60;99.90;;;;;;5048694;28;20158;-76
2021/10/18 02:11:13;;;;;;;6.55;4.15;;;5.60;99.90;;;;;;5048648;28;20165;-75
2021/10/18 02:13:39;;;;;;;5.13;4.00;;;5.60;99.90;;;;;;5048466;28;20193;-74
2021/10/18 02:16:06;;;;;;;14.65;5.13;;;5.50;99.90;;;;;;5030730;28;20172;-73
2021/10/18 02:18:31;;;;;;;9.95;5.00;;;5.50;99.90;;;;;;5048373;28;20153;-74
2021/10/18 02:21:01;;;;;;;15.43;4.55;;;5.50;99.90;;;;;;5048212;28;20215;-74
2021/10/18 02:23:29;;;;;;;11.40;5.10;;;5.50;99.90;;;;;;5048129;28;20181;-74
2021/10/18 02:25:55;;;;;;;7.57;4.22;;;5.50;99.90;;;;;;5030437;28;20692;-75
2021/10/18 02:28:21;;;;;;;6.68;4.40;;;5.50;99.90;;;;;;5048109;28;20154;-75
2021/10/18 02:30:50;;;;;;;6.45;4.63;;;5.50;99.90;;;;;;5030952;28;20173;-75
2021/10/18 02:33:16;;;;;;;22.52;5.63;;;5.50;99.90;;;;;;5031567;28;20268;-74
2021/10/18 02:35:42;;;;;;;10.80;4.40;;;5.50;99.90;;;;;;5048476;28;20210;-74
2021/10/18 02:38:08;;;;;;;8.93;4.53;;;5.50;99.90;;;;;;5030321;28;20199;-75
2021/10/18 02:40:34;;;;;;;6.20;4.55;;;5.50;99.90;;;;;;5030868;28;20217;-75
2021/10/18 02:43:00;;;;;;;9.13;5.28;;;5.50;99.90;;;;;;5038460;28;20226;-74
2021/10/18 02:45:29;;;;;;;9.48;4.97;;;5.30;99.90;;;;;;5032103;28;20208;-76
2021/10/18 02:47:55;;;;;;;10.40;5.85;;;5.30;99.90;;;;;;5010931;28;20166;-75
2021/10/18 02:50:21;;;;;;;7.80;4.80;;;5.20;99.90;;;;;;5028940;28;20237;-75
2021/10/18 02:52:47;;;;;;;8.10;5.22;;;5.20;99.90;;;;;;5028351;28;20244;-74
2021/10/18 02:55:12;;;;;;;8.20;4.97;;;5.30;99.90;;;;;;5015281;28;20287;-75
2021/10/18 02:57:38;;;;;;;7.72;5.07;;;5.40;99.90;;;;;;5030310;28;20193;-74
2021/10/18 03:00:05;;;;;;;9.15;5.13;;;5.40;99.90;;;;;;5030028;28;20269;-75
2021/10/18 03:02:31;;;;;;;8.57;5.20;;;5.30;99.90;;;;;;5029690;28;20201;-74
2021/10/18 03:04:57;;;;;;;15.05;5.70;;;5.30;99.90;;;;;;5051148;28;20181;-75
2021/10/18 03:07:23;;;;;;;9.48;5.68;;;5.30;99.90;;;;;;5051639;28;20619;-73
2021/10/18 03:09:49;;;;;;;8.55;5.78;;;5.40;99.90;;;;;;5034139;28;20242;-75
2021/10/18 03:12:15;;;;;;;8.90;4.90;;;5.30;99.90;;;;;;5051642;28;20189;-72
2021/10/18 03:14:41;;;;;;;7.40;4.70;;;5.30;99.90;;;;;;5051665;28;20267;-73
2021/10/18 03:17:07;;;;;;;9.57;5.55;;;5.30;99.90;;;;;;5033654;28;20246;-74
2021/10/18 03:19:33;;;;;;;8.10;5.25;;;5.20;99.90;;;;;;5051457;28;20576;-76
2021/10/18 03:21:58;;;;;;;7.65;4.78;;;5.20;99.90;;;;;;5033349;28;20262;-75
2021/10/18 03:24:24;;;;;;;11.02;6.05;;;5.20;99.90;;;;;;5051413;28;20161;-74
2021/10/18 03:26:50;;;;;;;9.50;5.65;;;5.00;99.90;;;;;;5051281;28;20154;-75
2021/10/18 03:29:16;;;;;;;11.73;5.18;;;5.10;99.90;;;;;;5051433;28;20234;-74
2021/10/18 03:31:42;;;;;;;10.80;5.65;;;5.10;99.90;;;;;;5033355;28;20173;-74
2021/10/18 03:34:08;;;;;;;11.27;5.65;;;5.00;99.90;;;;;;5033416;28;20184;-75
2021/10/18 03:36:34;;;;;;;8.52;5.43;;;5.10;99.90;;;;;;5050889;28;20285;-73
2021/10/18 03:39:00;;;;;;;13.52;5.70;;;5.10;99.90;;;;;;5033129;28;20241;-73
2021/10/18 03:41:26;;;;;;;6.97;5.35;;;5.00;99.90;;;;;;5050985;28;20161;-73
2021/10/18 03:43:51;;;;;;;9.02;5.45;;;5.10;99.90;;;;;;5065689;28;20192;-74
2021/10/18 03:46:17;;;;;;;6.93;5.07;;;5.00;99.90;;;;;;5053586;28;20216;-74
2021/10/18 03:48:43;;;;;;;10.50;5.10;;;5.00;99.90;;;;;;5032933;28;20177;-73
2021/10/18 03:51:09;;;;;;;8.85;4.88;;;5.10;99.90;;;;;;5051089;28;20162;-74
2021/10/18 03:53:36;;;;;;;9.00;5.25;;;5.10;99.90;;;;;;5050688;28;20229;-75
2021/10/18 03:56:02;;;;;;;9.23;5.70;;;5.10;99.90;;;;;;5039290;28;20190;-74
2021/10/18 03:58:28;;;;;;;10.88;5.90;;;5.10;99.90;;;;;;5030843;28;20253;-74
2021/10/18 04:00:54;;;;;;;8.15;4.75;;;5.10;99.90;;;;;;5030956;28;20237;-74
2021/10/18 04:03:20;;;;;;;9.30;5.03;;;5.20;99.90;;;;;;5028863;28;20180;-73
2021/10/18 04:05:46;;;;;;;8.65;4.70;;;5.20;99.90;;;;;;5050770;28;20189;-73
2021/10/18 04:08:12;;;;;;;7.18;5.00;;;5.10;99.90;;;;;;5032757;28;20180;-73
2021/10/18 04:10:38;;;;;;;6.40;4.20;;;5.10;99.90;;;;;;5050608;28;20170;-74
2021/10/18 04:13:04;;;;;;;10.50;5.70;;;5.20;99.90;;;;;;5032639;28;20184;-75
2021/10/18 04:15:30;;;;;;;8.50;4.50;;;5.20;99.90;;;;;;5032526;28;20201;-75
2021/10/18 04:17:56;;;;;;;8.85;4.93;;;5.20;99.90;;;;;;5032313;28;20272;-74
2021/10/18 04:20:22;;;;;;;9.20;5.18;;;5.10;99.90;;;;;;5050446;28;20194;-73
2021/10/18 04:22:49;;;;;;;8.82;4.63;;;5.20;99.90;;;;;;5032466;28;20657;-73
2021/10/18 04:25:16;;;;;;;8.88;5.45;;;5.10;99.90;;;;;;5050370;28;20215;-74
2021/10/18 04:27:42;;;;;;;9.63;5.05;;;5.10;99.90;;;;;;5049763;28;20169;-74
2021/10/18 04:30:09;;;;;;;7.57;5.47;;;5.10;99.90;;;;;;5032202;28;20178;-73
2021/10/18 04:32:35;;;;;;;7.78;5.32;;;5.10;99.90;;;;;;5032088;28;20207;-74
2021/10/18 04:35:01;;;;;;;6.22;5.07;;;5.10;99.90;;;;;;5049826;28;20192;-75
2021/10/18 04:37:27;;;;;;;9.40;5.45;;;5.10;99.90;;;;;;5049545;28;20200;-75
2021/10/18 04:39:53;;;;;;;8.88;4.80;;;5.10;99.90;;;;;;5049735;28;20245;-74
2021/10/18 04:42:19;;;;;;;11.70;5.82;;;5.00;99.90;;;;;;5033975;28;20257;-76
2021/10/18 04:44:45;;;;;;;8.95;5.18;;;5.10;99.90;;;;;;5046267;28;20770;-76
2021/10/18 04:47:11;;;;;;;9.75;4.97;;;5.20;99.90;;;;;;5049703;28;20196;-75
2021/10/18 04:49:36;;;;;;;11.88;5.45;;;5.20;99.90;;;;;;5031100;28;20208;-76
2021/10/18 04:52:03;;;;;;;13.85;5.88;;;5.20;99.90;;;;;;5031527;28;20185;-76
2021/10/18 04:54:28;;;;;;;6.47;4.82;;;5.20;99.90;;;;;;5064671;28;20260;-75
2021/10/18 04:56:54;;;;;;;9.77;5.20;;;5.20;99.90;;;;;;5067990;28;20183;-73
2021/10/18 04:59:20;;;;;;;8.98;4.95;;;5.20;99.90;;;;;;5068033;28;20193;-75
2021/10/18 05:01:46;;;;;;;10.80;4.72;;;5.20;99.90;;;;;;5069706;28;20165;-75
2021/10/18 05:04:12;;;;;;;12.02;4.93;;;5.20;99.90;;;;;;5069652;28;20646;-73
2021/10/18 05:06:38;;;;;;;7.10;5.57;;;5.20;99.90;;;;;;5068026;28;20203;-73
2021/10/18 05:09:04;;;;;;;8.43;5.35;;;5.30;99.90;;;;;;5069398;28;20161;-73
2021/10/18 05:11:30;;;;;;;7.60;4.93;;;5.20;99.90;;;;;;5067863;28;20161;-74
2021/10/18 05:13:56;;;;;;;7.47;5.30;;;5.20;99.90;;;;;;5067366;28;20218;-74
2021/10/18 05:16:21;;;;;;;10.13;5.25;;;5.20;99.90;;;;;;5069094;28;20196;-74
2021/10/18 05:18:47;;;;;;;9.45;5.35;;;5.30;99.90;;;;;;5067594;28;20169;-73
2021/10/18 05:21:13;;;;;;;6.93;5.05;;;5.30;99.90;;;;;;5069228;28;20211;-73
2021/10/18 05:23:39;;;;;;;10.00;5.90;;;5.30;99.90;;;;;;5068835;28;20244;-75
2021/10/18 05:26:05;;;;;;;8.20;4.63;;;5.20;99.90;;;;;;5067723;28;20149;-73
2021/10/18 05:28:31;;;;;;;7.40;4.78;;;5.20;99.90;;;;;;5066222;28;20172;-74
2021/10/18 05:30:57;;;;;;;13.48;5.07;;;5.10;99.90;;;;;;5068151;28;20165;-74
2021/10/18 05:33:23;;;;;;;9.75;6.05;;;5.10;99.90;;;;;;5068843;28;20197;-73
2021/10/18 05:35:49;;;;;;;15.52;6.38;;;5.20;99.90;;;;;;5067183;28;20168;-73
2021/10/18 05:38:19;;;;;;;14.18;6.88;;;5.20;99.90;;;;;;5068483;28;20244;-73
2021/10/18 05:40:46;;;;;;;12.73;6.22;;;5.20;99.90;;;;;;5067197;28;20207;-72
2021/10/18 05:43:12;;;;;;;12.45;6.70;;;5.30;99.90;;;;;;5067372;28;20264;-73
2021/10/18 05:45:38;;;;;;;12.77;8.23;;;5.50;99.90;;;;;;5067385;28;20179;-73
2021/10/18 05:48:05;;;;;;;11.73;6.68;;;5.50;99.90;;;;;;5067164;28;20156;-73
2021/10/18 05:50:34;;;;;;;14.00;7.60;;;5.50;99.90;;;;;;5067346;28;20165;-73
2021/10/18 05:53:00;;;;;;;13.05;7.65;;;5.50;99.90;;;;;;5062264;28;20229;-73
2021/10/18 05:55:26;;;;;;;11.52;6.18;;;5.60;99.90;;;;;;5030836;28;20214;-73
2021/10/18 05:57:57;;;;;;;13.65;8.23;;;5.60;99.90;;;;;;5048583;28;20223;-73
2021/10/18 06:00:24;;;;;;;12.55;6.22;;;5.80;99.90;;;;;;5048633;28;20189;-76
2021/10/18 06:02:52;;;;;;;12.90;7.53;;;5.80;99.90;;;;;;5048409;28;20188;-74
2021/10/18 06:05:19;;;;;;;16.27;7.32;;;5.70;99.90;;;;;;5029944;28;20197;-75
2021/10/18 06:07:45;;;;;;;12.15;7.57;;;5.80;99.90;;;;;;5046750;28;20241;-75
2021/10/18 06:10:13;;;;;;;12.75;7.30;;;5.90;99.90;;;;;;5048041;28;20162;-75
2021/10/18 06:12:40;;;;;;;14.38;6.57;;;5.90;99.90;;;;;;5048164;28;20166;-75
2021/10/18 06:15:08;;;;;;;8.98;6.30;;;6.00;99.90;;;;;;5047952;28;20662;-74
2021/10/18 06:17:34;;;;;;;18.55;7.53;;;6.20;99.90;;;;;;5047895;28;20169;-74
2021/10/18 06:20:00;;;;;;;16.95;8.27;;;6.30;99.90;;;;;;5048031;28;20189;-74
2021/10/18 06:22:27;;;;;;;23.40;8.23;;;6.40;99.90;;;;;;5047959;28;20173;-77
2021/10/18 06:24:53;;;;;;;16.70;8.15;;;6.50;99.90;;;;;;5029834;28;20197;-76
2021/10/18 06:27:21;;;;;;;12.13;7.32;;;6.60;99.90;;;;;;5047985;28;20154;-73
2021/10/18 06:29:47;;;;;;;13.57;7.57;;;6.50;99.90;;;;;;5047802;28;20153;-72
2021/10/18 06:32:13;;;;;;;17.80;10.02;;;6.60;99.90;;;;;;5030063;28;20177;-74
2021/10/18 06:34:39;;;;;;;18.98;9.07;;;6.60;99.90;;;;;;5047719;28;20219;-73
2021/10/18 06:37:05;;;;;;;22.08;9.05;;;6.50;99.90;;;;;;5047792;28;20221;-73
2021/10/18 06:39:31;;;;;;;12.20;7.95;;;6.50;99.90;;;;;;5047172;28;20193;-73
2021/10/18 06:41:57;;;;;;;17.77;8.02;;;6.70;99.90;;;;;;5047842;28;20500;-73
2021/10/18 06:44:23;;;;;;;13.88;8.10;;;6.90;99.90;;;;;;5029923;28;20242;-72
2021/10/18 06:46:49;;;;;;;16.30;8.85;;;7.10;99.90;;;;;;5030030;28;20185;-72
2021/10/18 06:49:15;;;;;;;15.38;6.90;;;7.10;99.90;;;;;;5047805;28;20158;-72
2021/10/18 06:51:53;;;;;;;11.00;7.40;;;6.90;99.90;;;;;;5029913;28;20176;-72
2021/10/18 06:54:20;;;;;;;18.35;8.13;;;6.90;99.90;;;;;;5059920;28;20234;-73
2021/10/18 06:56:46;;;;;;;11.23;7.15;;;7.10;99.90;;;;;;5067885;28;20209;-74
2021/10/18 06:59:14;;;;;;;15.55;7.03;;;7.30;99.90;;;;;;5065213;28;20169;-74
2021/10/18 07:01:40;;;;;;;12.35;7.97;;;7.70;99.90;;;;;;5067801;28;20192;-73
2021/10/18 07:04:07;;;;;;;14.48;7.07;;;8.00;99.90;;;;;;5066701;28;20176;-74
2021/10/18 07:06:34;;;;;;;10.38;6.60;;;8.40;99.90;;;;;;5067875;28;20164;-74
2021/10/18 07:09:00;;;;;;;10.65;7.32;;;8.40;99.90;;;;;;5067568;28;20161;-74
2021/10/18 07:11:26;;;;;;;10.75;6.45;;;8.50;99.90;;;;;;5067609;28;20262;-75
2021/10/18 07:13:53;;;;;;;10.77;6.45;;;8.70;99.90;;;;;;5068035;28;20161;-74
2021/10/18 07:16:20;;;;;;;7.68;5.55;;;8.70;99.90;;;;;;5067521;28;20155;-74
2021/10/18 07:18:47;;;;;;;10.55;5.78;;;8.90;99.90;;;;;;5067805;28;20222;-74
2021/10/18 07:21:14;;;;;;;10.20;6.07;;;9.00;99.90;;;;;;5065981;28;20358;-74
2021/10/18 07:23:40;;;;;;;8.63;5.47;;;9.40;99.90;;;;;;5066218;28;20552;-74
2021/10/18 07:26:07;;;;;;;10.63;6.70;;;9.50;99.90;;;;;;5067549;28;20164;-74
2021/10/18 07:28:35;;;;;;;14.27;6.82;;;9.50;99.90;;;;;;5067556;28;20183;-75
2021/10/18 07:31:01;;;;;;;12.05;5.97;;;9.50;99.90;;;;;;5067130;28;20200;-75
2021/10/18 07:33:28;;;;;;;16.35;6.57;;;9.50;99.90;;;;;;5067572;28;20153;-76
2021/10/18 07:35:56;;;;;;;10.15;5.38;;;9.50;99.90;;;;;;5064823;28;20180;-75
2021/10/18 07:38:24;;;;;;;10.88;6.05;;;9.50;99.90;;;;;;5067029;28;20157;-75
2021/10/18 07:40:53;;;;;;;9.15;6.35;;;9.90;99.90;;;;;;5066629;28;20205;-75
2021/10/18 07:43:19;;;;;;;11.52;5.85;;;10.20;99.90;;;;;;5065816;28;20189;-74
2021/10/18 07:45:44;;;;;;;11.02;6.28;;;10.20;99.90;;;;;;5066148;28;20601;-75
2021/10/18 07:48:11;;;;;;;10.38;6.20;;;10.30;99.90;;;;;;5065567;28;20157;-74
2021/10/18 07:50:37;;;;;;;11.05;5.85;;;10.10;99.90;;;;;;5068135;28;20283;-74
2021/10/18 07:53:03;;;;;;;10.70;6.35;;;10.30;99.90;;;;;;5068977;28;20216;-74
2021/10/18 07:55:30;;;;;;;8.20;5.78;;;10.40;99.90;;;;;;5070461;28;20204;-74
2021/10/18 07:57:57;;;;;;;14.77;6.03;;;10.50;99.90;;;;;;5070478;28;20216;-74
2021/10/18 08:00:23;;;;;;;11.30;6.60;;;10.40;99.90;;;;;;5070483;28;20211;-75
2021/10/18 08:02:49;;;;;;;11.00;6.47;;;10.40;99.90;;;;;;5069034;28;20228;-75
2021/10/18 08:05:16;;;;;;;12.30;6.30;;;10.40;99.90;;;;;;5070210;28;20183;-75
2021/10/18 08:07:49;;;;;;;8.77;6.25;;;10.70;99.90;;;;;;5070175;28;20172;-73
2021/10/18 08:10:23;;;;;;;17.02;6.18;;;11.10;99.90;;;;;;5070223;28;20326;-73
2021/10/18 08:12:50;;;;;;;9.05;6.00;;;11.50;99.90;;;;;;5069163;28;20489;-76
2021/10/18 08:15:16;;;;;;;9.75;5.95;;;11.80;99.90;;;;;;5068721;28;20189;-75
2021/10/18 08:17:42;;;;;;;14.60;6.07;;;11.90;99.90;;;;;;5068824;28;20179;-75
2021/10/18 08:20:09;;;;;;;7.45;5.07;;;11.90;99.90;;;;;;5070378;28;20220;-74
2021/10/18 08:22:35;;;;;;;12.52;6.32;;;12.10;99.90;;;;;;5070290;28;20244;-75
2021/10/18 08:25:00;;;;;;;12.38;6.35;;;12.60;99.90;;;;;;5068818;28;20175;-75
2021/10/18 08:27:26;;;;;;;15.07;5.75;;;13.30;99.90;;;;;;5068938;28;20613;-74
2021/10/18 08:29:52;;;;;;;11.43;5.55;;;13.90;99.90;;;;;;5068401;28;20216;-74
2021/10/18 08:32:18;;;;;;;10.00;5.57;;;14.20;99.90;;;;;;5069960;28;20165;-75
2021/10/18 08:34:44;;;;;;;11.50;7.10;;;13.80;99.90;;;;;;5070049;28;20164;-74
2021/10/18 08:37:10;;;;;;;9.48;6.40;;;13.90;99.90;;;;;;5070120;28;20157;-74
2021/10/18 08:42:28;;;;;;;9.55;5.63;;;13.50;99.90;;;;;;5070022;28;20216;-74
2021/10/18 08:44:55;;;;;;;9.38;5.63;;;13.20;99.90;;;;;;5068387;28;20172;-75
2021/10/18 08:47:26;;;;;;;10.63;6.38;;;13.30;99.90;;;;;;5069958;28;20176;-75
2021/10/18 08:49:53;;;;;;;16.73;6.25;;;13.40;99.90;;;;;;5069929;28;20184;-75
2021/10/18 08:52:22;;;;;;;10.57;5.30;;;13.50;99.90;;;;;;5069491;28;20169;-75
2021/10/18 08:54:49;;;;;;;10.93;5.75;;;14.00;99.90;;;;;;5049797;28;20173;-76
2021/10/18 08:57:15;;;;;;;14.48;6.28;;;14.00;99.90;;;;;;5030672;28;20185;-75
2021/10/18 08:59:40;;;;;;;11.00;5.53;;;14.60;99.90;;;;;;5040649;28;20217;-75
2021/10/18 09:02:07;;;;;;;8.43;5.70;;;15.00;99.90;;;;;;5035262;28;20225;-75
2021/10/18 09:04:40;;;;;;;7.82;5.50;;;15.20;99.90;;;;;;5031852;28;20173;-75
2021/10/18 09:07:17;;;;;;;13.27;6.47;;;14.90;99.90;;;;;;5019153;28;20538;-76
2021/10/18 09:09:54;;;;;;;10.85;6.55;;;13.90;99.90;;;;;;5029281;28;20244;-76
2021/10/18 09:12:39;;;;;;;16.67;5.95;;;13.30;99.90;;;;;;5029224;28;20165;-75
2021/10/18 09:15:22;;;;;;;8.23;5.55;;;13.40;99.90;;;;;;5037254;28;20158;-75
2021/10/18 09:17:59;;;;;;;13.57;6.95;;;13.50;99.90;;;;;;5049151;28;20244;-75
2021/10/18 09:20:26;;;;;;;9.63;5.13;;;14.20;99.90;;;;;;5048930;28;20213;-74
2021/10/18 09:22:55;;;;;;;10.20;5.78;;;14.60;99.90;;;;;;5048926;28;20233;-75
2021/10/18 09:25:31;;;;;;;9.40;5.47;;;14.40;99.90;;;;;;5031037;28;20176;-74
2021/10/18 09:28:12;;;;;;;12.45;6.10;;;15.10;99.90;;;;;;5031032;28;20165;-75
2021/10/18 09:30:40;;;;;;;10.63;6.25;;;15.80;99.90;;;;;;5030856;28;20613;-76
2021/10/18 09:33:33;;;;;;;12.35;5.95;;;15.30;99.90;;;;;;5032997;28;20174;-75
2021/10/18 09:36:03;;;;;;;7.32;5.13;;;15.90;99.90;;;;;;5028823;28;20174;-75
2021/10/18 09:38:29;;;;;;;8.80;5.13;;;16.10;99.90;;;;;;5028788;28;20225;-75
2021/10/18 09:41:00;;;;;;;9.20;4.53;;;15.80;99.90;;;;;;5028691;28;20206;-75
2021/10/18 10:54:02;;;;;;;5.03;3.70;;;15.80;99.90;;;;;;5047626;28;20283;-75
2021/10/18 10:56:30;;;;;;;7.15;3.95;;;16.20;99.90;;;;;;5029150;28;20193;-75
2021/10/18 10:59:06;;;;;;;5.22;3.40;;;16.10;99.90;;;;;;5046967;28;20291;-75
2021/10/18 11:01:43;;;;;;;5.55;3.80;;;16.50;99.90;;;;;;5047343;28;20191;-75
2021/10/18 11:04:31;;;;;;;4.53;3.45;;;15.90;99.90;;;;;;5029784;28;20188;-75
2021/10/18 11:07:08;;;;;;;6.13;3.35;;;15.80;99.90;;;;;;5032788;28;20177;-75
2021/10/18 11:09:55;;;;;;;3.88;2.90;;;17.10;99.90;;;;;;5047375;28;20244;-73
2021/10/18 11:12:33;;;;;;;4.85;3.33;;;18.70;99.90;;;;;;5047405;28;20256;-74
2021/10/18 11:15:08;;;;;;;5.70;3.70;;;18.90;99.90;;;;;;5047203;28;20235;-73
2021/10/18 11:17:36;;;;;;;4.15;3.00;;;18.60;99.90;;;;;;5047061;28;20188;-74
2021/10/18 11:20:09;;;;;;;5.45;3.20;;;17.90;99.90;;;;;;5029319;28;20213;-74
2021/10/18 11:22:47;;;;;;;10.15;3.55;;;16.90;99.90;;;;;;5047234;28;20561;-74
2021/10/18 11:25:16;;;;;;;6.45;3.55;;;16.40;99.90;;;;;;5031656;28;20240;-74
2021/10/18 11:27:44;;;;;;;5.57;3.25;;;16.10;99.90;;;;;;5050960;28;20307;-74
2021/10/18 11:30:14;;;;;;;7.50;4.20;;;16.00;99.90;;;;;;5050929;28;20157;-74
2021/10/18 11:32:41;;;;;;;5.22;3.92;;;15.50;99.90;;;;;;5033306;28;20267;-75
2021/10/18 11:35:17;;;;;;;6.63;3.38;;;15.70;99.90;;;;;;5033252;28;20180;-73
2021/10/18 11:37:50;;;;;;;5.55;3.40;;;16.70;99.90;;;;;;5050930;28;20240;-73
2021/10/18 11:40:17;;;;;;;4.55;2.92;;;16.70;99.90;;;;;;5049653;28;20327;-73
2021/10/18 11:43:03;;;;;;;8.73;3.97;;;16.10;99.90;;;;;;5051287;28;20157;-74
2021/10/18 11:45:32;;;;;;;5.85;3.20;;;16.20;99.90;;;;;;5052183;28;20635;-75
2021/10/18 11:48:14;;;;;;;5.75;3.60;;;16.10;99.90;;;;;;5034131;28;20223;-75
2021/10/18 11:50:41;;;;;;;3.38;2.60;;;16.20;99.90;;;;;;5034701;28;20173;-74
2021/10/18 11:53:12;;;;;;;7.18;3.10;;;16.30;99.90;;;;;;5051700;28;20281;-74
2021/10/18 11:55:40;;;;;;;4.25;3.28;;;17.30;99.90;;;;;;5051360;28;20232;-74
2021/10/18 11:58:08;;;;;;;4.47;3.33;;;17.50;99.90;;;;;;5050789;28;20197;-75
2021/10/18 12:00:42;;;;;;;5.55;2.97;;;17.30;99.90;;;;;;5050508;28;20209;-74
2021/10/18 12:03:16;;;;;;;6.63;3.83;;;16.40;99.90;;;;;;5050725;28;20165;-73
2021/10/18 12:05:48;;;;;;;5.25;3.05;;;17.00;99.90;;;;;;5050822;28;20209;-75
2021/10/18 12:08:19;;;;;;;5.18;3.60;;;17.90;99.90;;;;;;5050604;28;20220;-75
2021/10/18 12:10:48;;;;;;;4.93;3.13;;;17.40;99.90;;;;;;5050472;28;20529;-74
2021/10/18 12:13:23;;;;;;;6.50;3.80;;;15.80;99.90;;;;;;5050359;28;20252;-75
2021/10/18 12:15:52;;;;;;;3.55;3.08;;;15.00;99.90;;;;;;5050511;28;20163;-74
2021/10/18 12:18:24;;;;;;;6.22;3.72;;;15.00;99.90;;;;;;5032374;28;20734;-74
2021/10/18 12:20:52;;;;;;;6.13;3.60;;;14.60;99.90;;;;;;5032416;28;20283;-74
2021/10/18 12:23:30;;;;;;;5.63;3.05;;;14.60;99.90;;;;;;5032261;28;20180;-74
2021/10/18 12:26:18;;;;;;;5.05;3.40;;;14.60;99.90;;;;;;5032513;28;20180;-74
2021/10/18 12:28:48;;;;;;;5.93;3.63;;;14.80;99.90;;;;;;5048852;28;20197;-74
2021/10/18 12:31:43;;;;;;;5.18;3.35;;;14.50;99.90;;;;;;5050177;28;20173;-73
2021/10/18 12:34:24;;;;;;;5.68;3.45;;;14.40;99.90;;;;;;5023288;28;20185;-74
2021/10/18 12:36:56;;;;;;;3.72;2.70;;;14.20;99.90;;;;;;5031797;28;20173;-74
2021/10/18 12:39:49;;;;;;;5.70;3.85;;;14.50;99.90;;;;;;5031825;28;20169;-74
2021/10/18 12:42:24;;;;;;;5.43;3.10;;;14.50;99.90;;;;;;5049698;28;20162;-74
2021/10/18 12:45:04;;;;;;;3.42;2.60;;;14.80;99.90;;;;;;5031770;28;20204;-74
2021/10/18 12:47:32;;;;;;;6.90;3.63;;;14.70;99.90;;;;;;5031392;28;20284;-74
2021/10/18 12:50:15;;;;;;;6.25;4.15;;;14.20;99.90;;;;;;5049311;28;20157;-74
2021/10/18 12:52:56;;;;;;;6.07;3.58;;;14.20;99.90;;;;;;5049400;28;20220;-74
2021/10/18 12:55:23;;;;;;;7.88;4.05;;;14.40;99.90;;;;;;5049467;28;20164;-74
2021/10/18 12:57:54;;;;;;;6.28;3.75;;;14.50;99.90;;;;;;5031580;28;20585;-74
2021/10/18 13:00:27;;;;;;;4.90;3.05;;;14.50;99.90;;;;;;5049119;28;20633;-75
2021/10/18 13:02:58;;;;;;;4.18;3.00;;;14.60;99.90;;;;;;5031112;28;20169;-74
2021/10/18 13:05:30;;;;;;;4.95;3.47;;;14.70;99.90;;;;;;5049637;28;20158;-74
2021/10/18 13:08:01;;;;;;;3.63;2.58;;;15.10;99.90;;;;;;5069333;28;20188;-74
2021/10/18 13:10:33;;;;;;;6.70;4.05;;;14.70;99.90;;;;;;5050770;28;20241;-74
2021/10/18 13:13:02;;;;;;;3.55;3.22;;;14.60;99.90;;;;;;5069209;28;20157;-74
2021/10/18 13:15:28;;;;;;;4.18;2.78;;;14.50;99.90;;;;;;5069036;28;20614;-73
2021/10/18 13:17:54;;;;;;;4.28;2.90;;;14.30;99.90;;;;;;5069051;28;20271;-73
2021/10/18 13:20:23;;;;;;;7.07;3.97;;;14.50;99.90;;;;;;5068843;28;20193;-76
2021/10/18 13:22:52;;;;;;;4.68;2.90;;;14.80;99.90;;;;;;5068534;28;20161;-74
2021/10/18 13:25:19;;;;;;;4.10;3.05;;;14.90;99.90;;;;;;5051026;28;20188;-76
2021/10/18 13:27:45;;;;;;;5.25;3.05;;;14.60;99.90;;;;;;5068937;28;20654;-74
2021/10/18 13:30:12;;;;;;;4.50;3.10;;;14.50;99.90;;;;;;5050688;28;20279;-74
2021/10/18 13:32:42;;;;;;;5.55;3.38;;;14.50;99.90;;;;;;5050751;28;20211;-75
2021/10/18 13:35:09;;;;;;;6.40;3.42;;;14.50;99.90;;;;;;5050432;28;20283;-75
2021/10/18 13:37:36;;;;;;;4.38;3.25;;;14.60;99.90;;;;;;5050307;28;20543;-75
2021/10/18 13:40:05;;;;;;;5.63;3.38;;;14.70;99.90;;;;;;5068785;28;20189;-75
2021/10/18 13:42:31;;;;;;;10.20;4.30;;;14.90;99.90;;;;;;5050790;28;20190;-75
2021/10/18 13:44:57;;;;;;;7.20;4.10;;;14.40;99.90;;;;;;5050755;28;20164;-74
2021/10/18 13:47:23;;;;;;;6.30;3.70;;;14.30;99.90;;;;;;5050221;28;20268;-74
2021/10/18 13:49:48;;;;;;;6.03;3.20;;;14.30;99.90;;;;;;5050703;28;20563;-74
2021/10/18 13:52:15;;;;;;;4.47;3.05;;;14.40;99.90;;;;;;5068636;28;20243;-74
2021/10/18 13:54:41;;;;;;;5.93;3.65;;;14.50;99.90;;;;;;5068159;28;20224;-74
2021/10/18 13:57:07;;;;;;;9.30;4.05;;;14.50;99.90;;;;;;5068480;28;20229;-75
2021/10/18 13:59:37;;;;;;;6.43;3.25;;;14.30;99.90;;;;;;5058538;28;20609;-74
2021/10/18 14:02:06;;;;;;;4.60;3.22;;;14.30;99.90;;;;;;5047485;28;20173;-75
2021/10/18 14:04:31;;;;;;;4.15;2.70;;;14.40;99.90;;;;;;5048192;28;20177;-74
2021/10/18 14:06:57;;;;;;;6.22;3.10;;;14.60;99.90;;;;;;5061788;28;20161;-74
2021/10/18 14:09:23;;;;;;;5.75;3.25;;;14.50;99.90;;;;;;5050322;28;20232;-74